createdAt,value
2018-11-06T00:00:46.718Z,47.20
2018-11-06T00:03:21.302Z,43.93
2018-11-06T00:05:50.629Z,44.57
2018-11-06T00:08:20.044Z,45.03
2018-11-06T00:10:49.388Z,46.83
2018-11-06T00:13:18.707Z,44.23
2018-11-06T00:15:48.126Z,45.47
2018-11-06T00:18:17.476Z,46.73
2018-11-06T00:20:46.836Z,47.73
2018-11-06T00:23:16.174Z,46.00
2018-11-06T00:25:45.550Z,49.43
2018-11-06T00:28:14.902Z,49.60
2018-11-06T00:30:44.199Z,50.53
2018-11-06T00:33:13.552Z,48.10
2018-11-06T00:35:42.893Z,50.73
2018-11-06T00:38:12.215Z,50.40
2018-11-06T00:40:41.589Z,51.73
2018-11-06T00:43:10.974Z,50.83
2018-11-06T00:45:40.389Z,51.40
2018-11-06T00:48:09.716Z,52.47
2018-11-06T00:50:39.047Z,53.83
2018-11-06T00:53:08.378Z,53.30
2018-11-06T00:55:37.803Z,52.57
2018-11-06T00:58:07.176Z,53.63
2018-11-06T01:00:36.464Z,52.75
2018-11-06T01:03:06.020Z,55.10
2018-11-06T01:05:35.305Z,53.73
2018-11-06T01:08:04.724Z,54.33
2018-11-06T01:10:34.022Z,52.77
2018-11-06T01:13:03.446Z,50.12
2018-11-06T01:15:32.775Z,53.77
2018-11-06T01:18:02.140Z,52.50
2018-11-06T01:20:31.520Z,54.67
2018-11-06T01:23:00.879Z,52.63
2018-11-06T01:25:30.242Z,54.60
2018-11-06T01:27:59.652Z,53.85
2018-11-06T01:30:29.034Z,53.77
2018-11-06T01:32:58.451Z,54.03
2018-11-06T01:35:27.749Z,52.33
2018-11-06T01:37:57.551Z,52.40
2018-11-06T01:40:27.652Z,54.18
2018-11-06T01:42:57.564Z,55.48
2018-11-06T01:45:27.625Z,55.55
2018-11-06T01:47:57.578Z,55.38
2018-11-06T01:50:27.672Z,55.23
2018-11-06T01:52:57.609Z,54.77
2018-11-06T01:55:27.617Z,56.37
2018-11-06T01:57:57.665Z,56.42
2018-11-06T02:00:27.731Z,53.08
2018-11-06T02:02:57.611Z,53.20
2018-11-06T02:05:27.645Z,52.90
2018-11-06T02:07:57.693Z,53.05
2018-11-06T02:10:27.761Z,53.35
2018-11-06T02:12:57.626Z,52.38
2018-11-06T02:15:27.638Z,53.83
2018-11-06T02:17:57.751Z,52.88
2018-11-06T02:20:27.713Z,53.30
2018-11-06T02:22:57.692Z,51.05
2018-11-06T02:25:30.679Z,49.80
2018-11-06T02:28:00.440Z,52.03
2018-11-06T02:30:29.821Z,51.80
2018-11-06T02:32:59.260Z,51.10
2018-11-06T02:35:28.630Z,48.92
2018-11-06T02:37:57.966Z,49.90
2018-11-06T02:40:27.736Z,48.10
2018-11-06T02:42:57.831Z,46.92
2018-11-06T02:45:27.606Z,46.15
2018-11-06T02:47:57.724Z,45.17
2018-11-06T02:50:27.686Z,43.87
2018-11-06T02:52:57.697Z,44.45
2018-11-06T02:55:27.727Z,44.58
2018-11-06T02:57:57.784Z,44.05
2018-11-06T03:00:27.732Z,43.55
2018-11-06T03:02:57.762Z,42.25
2018-11-06T03:05:27.873Z,45.90
2018-11-06T03:07:57.826Z,43.45
2018-11-06T03:10:27.822Z,45.05
2018-11-06T03:12:57.733Z,44.90
2018-11-06T03:15:29.210Z,42.38
2018-11-06T03:17:58.533Z,43.23
2018-11-06T03:20:27.823Z,42.67
2018-11-06T03:22:57.741Z,43.25
2018-11-06T03:25:27.747Z,43.15
2018-11-06T03:27:57.795Z,44.13
2018-11-06T03:30:27.810Z,42.48
2018-11-06T03:32:57.753Z,44.17
2018-11-06T03:35:27.869Z,42.75
2018-11-06T03:37:57.826Z,42.70
2018-11-06T03:40:27.825Z,42.53
2018-11-06T03:42:57.805Z,42.67
2018-11-06T03:45:27.791Z,43.55
2018-11-06T03:47:57.754Z,43.43
2018-11-06T03:50:27.917Z,43.92
2018-11-06T03:52:57.848Z,41.68
2018-11-06T03:55:27.791Z,42.35
2018-11-06T03:57:57.809Z,42.93
2018-11-06T04:00:27.861Z,42.33
2018-11-06T04:02:57.906Z,44.40
2018-11-06T04:05:27.874Z,43.17
2018-11-06T04:08:04.661Z,39.08
2018-11-06T04:10:34.023Z,43.03
2018-11-06T04:13:03.357Z,43.87
2018-11-06T04:15:32.713Z,41.58
2018-11-06T04:18:02.109Z,43.55
2018-11-06T04:20:31.449Z,41.93
2018-11-06T04:23:00.781Z,43.33
2018-11-06T04:25:30.116Z,40.87
2018-11-06T04:27:59.454Z,42.73
2018-11-06T04:30:28.789Z,41.75
2018-11-06T04:32:59.007Z,42.97
2018-11-06T04:35:28.367Z,42.90
2018-11-06T04:37:58.015Z,43.55
2018-11-06T04:40:27.936Z,41.90
2018-11-06T04:42:57.927Z,42.78
2018-11-06T04:45:27.914Z,41.13
2018-11-06T04:47:57.932Z,40.40
2018-11-06T04:50:27.945Z,42.80
2018-11-06T04:52:58.034Z,40.23
2018-11-06T04:55:28.025Z,41.10
2018-11-06T04:57:57.873Z,40.33
2018-11-06T05:00:28.007Z,40.67
2018-11-06T05:02:57.986Z,40.38
2018-11-06T05:05:27.995Z,40.80
2018-11-06T05:07:57.998Z,38.30
2018-11-06T05:10:27.996Z,40.75
2018-11-06T05:12:57.996Z,40.85
2018-11-06T05:15:28.025Z,39.35
2018-11-06T05:17:57.983Z,37.75
2018-11-06T05:20:28.013Z,37.63
2018-11-06T05:22:58.038Z,37.25
2018-11-06T05:25:28.180Z,37.08
2018-11-06T05:27:57.960Z,36.95
2018-11-06T05:30:27.994Z,36.70
2018-11-06T05:32:58.117Z,36.70
2018-11-06T05:35:28.020Z,38.65
2018-11-06T05:37:58.080Z,37.40
2018-11-06T05:40:45.105Z,37.17
2018-11-06T05:43:14.423Z,35.90
2018-11-06T05:45:43.837Z,36.83
2018-11-06T05:48:13.096Z,36.13
2018-11-06T05:50:42.422Z,36.27
2018-11-06T05:53:11.747Z,37.07
2018-11-06T05:55:41.201Z,36.68
2018-11-06T05:58:10.697Z,35.90
2018-11-06T06:00:40.478Z,34.78
2018-11-06T06:03:09.717Z,34.60
2018-11-06T06:05:45.696Z,34.60
2018-11-06T06:08:15.027Z,32.27
2018-11-06T06:10:44.413Z,32.73
2018-11-06T06:13:13.780Z,31.67
2018-11-06T06:15:43.155Z,31.07
2018-11-06T06:18:12.447Z,30.00
2018-11-06T06:20:41.820Z,29.93
2018-11-06T06:23:11.143Z,28.03
2018-11-06T06:25:40.558Z,29.13
2018-11-06T06:28:09.910Z,28.17
2018-11-06T06:30:39.487Z,26.53
2018-11-06T06:33:09.794Z,28.03
2018-11-06T06:35:45.500Z,29.47
2018-11-06T06:38:14.802Z,26.87
2018-11-06T06:40:44.189Z,28.73
2018-11-06T06:43:13.473Z,28.20
2018-11-06T06:45:42.781Z,27.70
2018-11-06T06:48:12.154Z,28.98
2018-11-06T06:50:41.683Z,29.02
2018-11-06T06:53:11.003Z,27.48
2018-11-06T06:55:40.323Z,29.23
2018-11-06T06:58:09.816Z,26.40
2018-11-06T07:00:39.159Z,27.13
2018-11-06T07:03:08.584Z,26.50
2018-11-06T07:05:37.882Z,26.63
2018-11-06T07:08:07.247Z,25.20
2018-11-06T07:10:36.679Z,24.43
2018-11-06T07:13:06.159Z,23.17
2018-11-06T07:15:35.501Z,21.33
2018-11-06T07:18:04.850Z,22.57
2018-11-06T07:20:34.183Z,22.80
2018-11-06T07:23:03.565Z,24.47
2018-11-06T07:25:32.938Z,22.30
2018-11-06T07:28:02.365Z,22.77
2018-11-06T07:30:31.742Z,22.80
2018-11-06T07:33:01.074Z,22.40
2018-11-06T07:35:30.666Z,21.13
2018-11-06T07:37:59.869Z,22.70
2018-11-06T07:40:29.283Z,22.90
2018-11-06T07:42:58.600Z,23.17
2018-11-06T07:45:28.341Z,22.50
2018-11-06T07:47:58.338Z,23.42
2018-11-06T07:50:28.394Z,22.40
2018-11-06T07:52:58.496Z,24.92
2018-11-06T07:55:28.438Z,26.82
2018-11-06T07:57:58.540Z,25.77
2018-11-06T08:00:28.399Z,25.17
2018-11-06T08:02:58.447Z,26.40
2018-11-06T08:05:28.383Z,26.60
2018-11-06T08:07:58.450Z,25.80
2018-11-06T08:10:28.479Z,25.45
2018-11-06T08:12:58.404Z,27.02
2018-11-06T08:15:28.334Z,25.65
2018-11-06T08:17:58.372Z,24.20
2018-11-06T08:20:28.499Z,23.73
2018-11-06T08:22:58.460Z,23.95
2018-11-06T08:25:28.540Z,23.25
2018-11-06T08:27:58.424Z,21.80
2018-11-06T08:30:28.531Z,21.82
2018-11-06T08:32:58.343Z,21.33
2018-11-06T08:35:28.361Z,21.73
2018-11-06T08:37:58.400Z,20.52
2018-11-06T08:40:28.492Z,20.95
2018-11-06T08:42:58.488Z,21.73
2018-11-06T08:45:28.429Z,22.52
2018-11-06T08:47:58.427Z,22.82
2018-11-06T08:50:28.816Z,21.50
2018-11-06T08:52:58.624Z,24.00
2018-11-06T08:55:28.792Z,23.73
2018-11-06T08:57:58.743Z,24.10
2018-11-06T09:00:28.762Z,24.55
2018-11-06T09:02:58.788Z,23.77
2018-11-06T09:05:28.765Z,23.87
2018-11-06T09:07:58.697Z,23.32
2018-11-06T09:10:28.705Z,24.20
2018-11-06T09:12:58.784Z,22.77
2018-11-06T09:15:28.741Z,25.32
2018-11-06T09:17:58.816Z,24.00
2018-11-06T09:20:28.868Z,24.70
2018-11-06T09:22:58.812Z,24.57
2018-11-06T09:25:28.738Z,25.10
2018-11-06T09:27:58.949Z,25.12
2018-11-06T09:30:28.860Z,25.77
2018-11-06T09:32:58.841Z,23.95
2018-11-06T09:35:28.828Z,25.05
2018-11-06T09:37:58.796Z,25.25
2018-11-06T09:42:58.848Z,25.20
2018-11-06T09:45:28.808Z,23.73
2018-11-06T09:47:58.873Z,26.25
2018-11-06T09:50:28.906Z,24.27
2018-11-06T09:52:58.881Z,23.55
2018-11-06T09:55:28.821Z,24.55
2018-11-06T09:57:58.950Z,25.80
2018-11-06T10:00:28.954Z,25.05
2018-11-06T10:02:58.880Z,26.93
2018-11-06T10:05:28.932Z,26.47
2018-11-06T10:07:59.042Z,25.70
2018-11-06T10:10:28.901Z,26.10
2018-11-06T10:12:58.866Z,25.92
2018-11-06T10:15:28.937Z,26.85
2018-11-06T10:17:58.898Z,29.75
2018-11-06T10:20:28.985Z,28.23
2018-11-06T10:22:58.920Z,31.00
2018-11-06T10:25:28.919Z,29.45
2018-11-06T10:27:58.920Z,27.30
2018-11-06T10:30:28.969Z,28.45
2018-11-06T10:32:58.899Z,26.57
2018-11-06T10:35:29.079Z,28.07
2018-11-06T10:37:59.062Z,26.25
2018-11-06T10:40:29.034Z,26.68
2018-11-06T10:42:59.045Z,26.35
2018-11-06T10:45:29.207Z,25.90
2018-11-06T10:48:02.720Z,27.15
2018-11-06T10:50:32.039Z,27.43
2018-11-06T10:53:01.397Z,26.93
2018-11-06T10:55:30.802Z,25.97
2018-11-06T10:58:00.109Z,26.20
2018-11-06T11:00:34.567Z,24.50
2018-11-06T11:03:11.856Z,28.10
2018-11-06T11:05:41.631Z,28.30
2018-11-06T11:08:11.002Z,26.33
2018-11-06T11:10:40.382Z,27.27
2018-11-06T11:13:09.807Z,25.67
2018-11-06T11:15:39.144Z,28.37
2018-11-06T11:18:08.562Z,27.07
2018-11-06T11:20:38.060Z,25.30
2018-11-06T11:23:07.754Z,25.70
2018-11-06T11:25:37.131Z,27.13
2018-11-06T11:28:06.482Z,29.03
2018-11-06T11:30:35.834Z,27.40
2018-11-06T11:33:05.585Z,28.33
2018-11-06T11:35:34.961Z,29.90
2018-11-06T11:38:04.352Z,28.70
2018-11-06T11:40:33.833Z,29.50
2018-11-06T11:43:03.253Z,27.90
2018-11-06T11:45:32.655Z,27.20
2018-11-06T11:48:02.095Z,30.72
2018-11-06T11:50:31.473Z,29.73
2018-11-06T11:53:00.854Z,30.33
2018-11-06T11:55:30.195Z,29.50
2018-11-06T11:57:59.505Z,28.13
2018-11-06T12:00:29.561Z,28.50
2018-11-06T12:02:59.171Z,29.80
2018-11-06T12:05:30.390Z,27.40
2018-11-06T12:07:59.762Z,29.40
2018-11-06T12:10:29.231Z,29.45
2018-11-06T12:12:59.188Z,29.82
2018-11-06T12:15:29.160Z,30.62
2018-11-06T12:17:59.182Z,28.62
2018-11-06T12:20:29.265Z,27.07
2018-11-06T12:22:59.138Z,29.05
2018-11-06T12:25:29.299Z,27.85
2018-11-06T12:27:59.229Z,26.25
2018-11-06T12:30:29.227Z,28.50
2018-11-06T12:32:59.149Z,29.27
2018-11-06T12:35:29.213Z,31.10
2018-11-06T12:37:59.209Z,29.27
2018-11-06T12:40:29.201Z,30.27
2018-11-06T12:42:59.296Z,29.63
2018-11-06T12:45:29.287Z,29.67
2018-11-06T12:47:59.170Z,30.72
2018-11-06T12:50:29.229Z,28.62
2018-11-06T12:52:59.224Z,30.90
2018-11-06T12:55:29.224Z,28.50
2018-11-06T12:57:59.214Z,29.80
2018-11-06T13:00:29.318Z,30.15
2018-11-06T13:02:59.318Z,26.68
2018-11-06T13:05:29.241Z,30.02
2018-11-06T13:07:59.257Z,31.57
2018-11-06T13:10:29.297Z,29.80
2018-11-06T13:12:59.252Z,27.63
2018-11-06T13:15:29.368Z,30.12
2018-11-06T13:17:59.363Z,30.52
2018-11-06T13:20:29.247Z,27.05
2018-11-06T13:22:59.341Z,28.92
2018-11-06T13:25:29.427Z,26.85
2018-11-06T13:27:59.190Z,29.10
2018-11-06T13:30:29.367Z,28.32
2018-11-06T13:32:59.292Z,29.90
2018-11-06T13:35:29.347Z,30.08
2018-11-06T13:37:59.248Z,30.08
2018-11-06T13:40:29.310Z,26.17
2018-11-06T13:42:59.417Z,29.25
2018-11-06T13:45:29.488Z,28.75
2018-11-06T13:47:59.380Z,28.10
2018-11-06T13:50:29.421Z,28.75
2018-11-06T13:52:59.293Z,29.15
2018-11-06T13:55:29.388Z,29.70
2018-11-06T13:57:59.339Z,28.90
2018-11-06T14:00:29.397Z,29.00
2018-11-06T14:02:59.386Z,29.05
2018-11-06T14:05:29.452Z,27.98
2018-11-06T14:07:59.310Z,28.90
2018-11-06T14:10:29.449Z,29.92
2018-11-06T14:12:59.310Z,32.58
2018-11-06T14:15:29.375Z,30.77
2018-11-06T14:17:59.426Z,31.17
2018-11-06T14:20:29.503Z,32.45
2018-11-06T14:22:59.499Z,32.28
2018-11-06T14:25:29.453Z,33.67
2018-11-06T14:27:59.415Z,33.92
2018-11-06T14:30:29.474Z,34.58
2018-11-06T14:32:59.507Z,33.48
2018-11-06T14:35:29.533Z,32.42
2018-11-06T14:37:59.486Z,30.08
2018-11-06T14:40:29.447Z,35.63
2018-11-06T14:42:59.469Z,29.65
2018-11-06T14:45:29.489Z,31.52
2018-11-06T14:47:59.518Z,31.65
2018-11-06T14:50:29.555Z,33.55
2018-11-06T14:53:02.550Z,33.70
2018-11-06T14:55:31.842Z,34.13
2018-11-06T14:58:01.267Z,33.87
2018-11-06T15:00:30.677Z,34.27
2018-11-06T15:03:00.032Z,31.60
2018-11-06T15:05:29.574Z,28.47
2018-11-06T15:07:59.564Z,29.55
2018-11-06T15:10:29.918Z,29.95
2018-11-06T15:12:59.422Z,28.32
2018-11-06T15:15:29.574Z,31.10
2018-11-06T15:17:59.495Z,31.90
2018-11-06T15:20:29.576Z,30.48
2018-11-06T15:22:59.477Z,31.07
2018-11-06T15:25:29.639Z,31.12
2018-11-06T15:27:59.494Z,31.25
2018-11-06T15:30:29.618Z,32.70
2018-11-06T15:32:59.532Z,32.45
2018-11-06T15:35:29.602Z,31.57
2018-11-06T15:37:59.654Z,30.20
2018-11-06T15:40:29.666Z,31.45
2018-11-06T15:42:59.555Z,31.55
2018-11-06T15:45:29.652Z,30.60
2018-11-06T15:47:59.529Z,30.17
2018-11-06T15:50:29.634Z,30.32
2018-11-06T15:52:59.628Z,30.50
2018-11-06T15:55:29.627Z,29.85
2018-11-06T15:57:59.738Z,29.65
2018-11-06T16:00:29.706Z,30.62
2018-11-06T16:02:59.640Z,31.33
2018-11-06T16:05:29.676Z,33.80
2018-11-06T16:07:59.697Z,35.33
2018-11-06T16:10:30.052Z,35.40
2018-11-06T16:12:59.706Z,35.95
2018-11-06T16:15:29.936Z,37.33
2018-11-06T16:17:59.609Z,36.80
2018-11-06T16:20:29.641Z,35.90
2018-11-06T16:22:59.687Z,36.68
2018-11-06T16:25:29.763Z,37.83
2018-11-06T16:27:59.709Z,37.50
2018-11-06T16:30:29.653Z,36.20
2018-11-06T16:32:59.805Z,36.75
2018-11-06T16:35:29.729Z,36.50
2018-11-06T16:37:59.827Z,38.92
2018-11-06T16:40:29.846Z,39.15
2018-11-06T16:42:59.937Z,38.80
2018-11-06T16:45:29.906Z,35.70
2018-11-06T16:47:59.860Z,34.40
2018-11-06T16:50:29.911Z,38.08
2018-11-06T16:52:59.995Z,39.23
2018-11-06T16:55:29.907Z,34.03
2018-11-06T16:58:00.027Z,37.00
2018-11-06T17:00:30.182Z,37.30
2018-11-06T17:03:00.192Z,37.80
2018-11-06T17:05:30.118Z,38.20
2018-11-06T17:08:00.208Z,37.98
2018-11-06T17:10:30.336Z,38.13
2018-11-06T17:13:00.206Z,36.93
2018-11-06T17:15:30.142Z,38.13
2018-11-06T17:18:00.127Z,39.95
2018-11-06T17:20:30.148Z,40.67
2018-11-06T17:23:00.241Z,38.00
2018-11-06T17:25:30.372Z,35.45
2018-11-06T17:28:00.241Z,39.55
2018-11-06T17:30:30.719Z,40.08
2018-11-06T17:33:00.645Z,37.50
2018-11-06T17:35:30.483Z,38.28
2018-11-06T17:38:00.426Z,36.43
2018-11-06T17:40:30.515Z,37.40
2018-11-06T17:43:00.566Z,39.78
2018-11-06T17:45:30.649Z,36.65
2018-11-06T17:48:00.960Z,37.67
2018-11-06T17:50:30.912Z,36.65
2018-11-06T17:53:00.935Z,36.23
2018-11-06T17:55:31.033Z,37.35
2018-11-06T17:58:01.271Z,36.15
2018-11-06T18:00:31.234Z,35.15
2018-11-06T18:03:01.210Z,35.50
2018-11-06T18:05:31.185Z,34.43
2018-11-06T18:08:01.134Z,34.08
2018-11-06T18:10:31.331Z,33.98
2018-11-06T18:13:01.207Z,35.15
2018-11-06T18:15:31.157Z,35.57
2018-11-06T18:18:01.419Z,34.58
2018-11-06T18:20:31.212Z,36.05
2018-11-06T18:23:01.245Z,34.95
2018-11-06T18:25:38.068Z,36.98
2018-11-06T18:28:07.547Z,36.33
2018-11-06T18:30:36.922Z,37.87
2018-11-06T18:33:06.516Z,37.55
2018-11-06T18:35:35.877Z,37.17
2018-11-06T18:38:05.342Z,36.57
2018-11-06T18:40:34.683Z,33.43
2018-11-06T18:43:04.037Z,32.97
2018-11-06T18:45:33.408Z,34.50
2018-11-06T18:48:02.782Z,34.53
2018-11-06T18:50:32.149Z,32.30
2018-11-06T18:53:01.530Z,32.38
2018-11-06T18:55:31.687Z,32.55
2018-11-06T18:58:01.717Z,32.08
2018-11-06T19:00:31.732Z,31.68
2018-11-06T19:03:01.789Z,33.40
2018-11-06T19:05:31.808Z,30.85
2018-11-06T19:08:01.842Z,32.98
2018-11-06T19:10:31.877Z,30.68
2018-11-06T19:13:01.986Z,31.75
2018-11-06T19:15:31.929Z,30.88
2018-11-06T19:18:02.101Z,30.32
2018-11-06T19:20:31.996Z,31.23
2018-11-06T19:23:03.215Z,32.10
2018-11-06T19:25:32.525Z,32.77
2018-11-06T19:28:02.616Z,33.55
2018-11-06T19:30:39.218Z,35.13
2018-11-06T19:33:08.507Z,36.30
2018-11-06T19:35:37.864Z,37.28
2018-11-06T19:38:07.324Z,37.83
2018-11-06T19:40:36.912Z,40.60
2018-11-06T19:43:06.318Z,37.77
2018-11-06T19:45:35.903Z,36.58
2018-11-06T19:48:05.851Z,37.30
2018-11-06T19:50:35.466Z,39.47
2018-11-06T19:53:05.258Z,40.77
2018-11-06T19:55:34.876Z,41.60
2018-11-06T19:58:04.641Z,40.43
2018-11-06T20:00:34.310Z,40.00
2018-11-06T20:03:04.162Z,39.07
2018-11-06T20:05:33.885Z,38.30
2018-11-06T20:08:03.603Z,39.20
2018-11-06T20:10:33.159Z,39.97
2018-11-06T20:13:03.245Z,38.65
2018-11-06T20:15:34.032Z,36.47
2018-11-06T20:18:03.853Z,38.88
2018-11-06T20:20:33.914Z,37.53
2018-11-06T20:23:03.958Z,34.65
2018-11-06T20:25:34.446Z,35.38
2018-11-06T20:28:04.324Z,36.20
2018-11-06T20:30:34.251Z,35.63
2018-11-06T20:33:04.744Z,35.40
2018-11-06T20:35:34.365Z,37.75
2018-11-06T20:38:04.471Z,37.10
2018-11-06T20:40:34.386Z,36.63
2018-11-06T20:43:04.905Z,38.73
2018-11-06T20:45:34.863Z,37.65
2018-11-06T20:48:04.889Z,37.48
2018-11-06T20:50:35.245Z,38.78
2018-11-06T20:53:05.128Z,38.83
2018-11-06T20:55:34.967Z,38.60
2018-11-06T20:58:04.875Z,39.05
2018-11-06T21:00:35.440Z,39.58
2018-11-06T21:03:05.613Z,39.33
2018-11-06T21:05:35.476Z,39.20
2018-11-06T21:08:05.883Z,39.35
2018-11-06T21:10:35.699Z,40.92
2018-11-06T21:13:06.168Z,39.98
2018-11-06T21:15:35.687Z,39.65
2018-11-06T21:18:05.998Z,36.60
2018-11-06T21:20:35.901Z,39.20
2018-11-06T21:23:05.908Z,39.40
2018-11-06T21:25:36.300Z,40.28
2018-11-06T21:28:06.494Z,40.52
2018-11-06T21:30:36.157Z,41.02
2018-11-06T21:33:06.288Z,40.78
2018-11-06T21:35:36.204Z,41.35
2018-11-06T21:38:06.248Z,40.50
2018-11-06T21:40:36.216Z,39.30
2018-11-06T21:43:06.333Z,40.38
2018-11-06T21:45:36.334Z,39.53
2018-11-06T21:48:06.658Z,39.50
2018-11-06T21:50:36.261Z,39.70
2018-11-06T21:53:06.932Z,39.75
2018-11-06T21:55:36.665Z,39.53
2018-11-06T21:58:06.855Z,39.50
2018-11-06T22:00:36.783Z,41.73
2018-11-06T22:03:06.786Z,40.28
2018-11-06T22:05:36.920Z,37.58
2018-11-06T22:08:06.792Z,39.45
2018-11-06T22:10:37.425Z,37.67
2018-11-06T22:13:07.648Z,39.33
2018-11-06T22:15:37.854Z,38.63
2018-11-06T22:18:07.568Z,37.60
2018-11-06T22:20:37.626Z,37.95
2018-11-06T22:23:07.679Z,38.55
2018-11-06T22:25:37.007Z,37.90
2018-11-06T22:28:06.672Z,38.70
2018-11-06T22:30:35.965Z,39.27
2018-11-06T22:33:09.862Z,40.78
2018-11-06T22:35:39.140Z,43.30
2018-11-06T22:38:08.578Z,41.80
2018-11-06T22:40:37.901Z,41.73
2018-11-06T22:43:07.277Z,41.00
2018-11-06T22:45:36.634Z,40.10
2018-11-06T22:48:06.024Z,40.80
2018-11-06T22:50:35.379Z,40.33
2018-11-06T22:53:04.816Z,41.43
2018-11-06T22:55:34.203Z,40.90
2018-11-06T22:58:03.600Z,38.73
2018-11-06T23:00:38.247Z,40.20
2018-11-06T23:03:11.576Z,42.23
2018-11-06T23:05:41.272Z,39.77
2018-11-06T23:08:15.967Z,39.17
2018-11-06T23:10:46.242Z,38.50
2018-11-06T23:13:15.523Z,41.08
2018-11-06T23:15:44.899Z,43.40
2018-11-06T23:18:14.233Z,42.00
2018-11-06T23:20:43.630Z,40.73
2018-11-06T23:23:13.033Z,40.10
2018-11-06T23:25:42.436Z,42.87
2018-11-06T23:28:11.842Z,41.47
2018-11-06T23:30:41.187Z,42.67
2018-11-06T23:33:10.548Z,41.33
2018-11-06T23:35:39.928Z,40.35
2018-11-06T23:38:09.285Z,41.70
2018-11-06T23:40:38.623Z,43.37
2018-11-06T23:43:07.943Z,42.47
2018-11-06T23:45:37.329Z,41.50
2018-11-06T23:48:06.722Z,41.47
2018-11-06T23:50:36.079Z,41.18
2018-11-06T23:53:05.653Z,40.67
2018-11-06T23:55:35.080Z,39.23
2018-11-06T23:58:04.439Z,42.73
